createdAt,value
2017-05-19T00:01:19.948Z,8.64
2017-05-19T00:03:48.565Z,9.12
2017-05-19T00:06:17.181Z,9.32
2017-05-19T00:08:45.969Z,11.58
2017-05-19T00:11:14.191Z,11.42
2017-05-19T00:13:43.185Z,13.26
2017-05-19T00:16:12.234Z,11.76
2017-05-19T00:18:40.910Z,11.20
2017-05-19T00:21:09.511Z,11.94
2017-05-19T00:23:37.763Z,11.30
2017-05-19T00:26:05.983Z,12.40
2017-05-19T00:28:34.973Z,11.58
2017-05-19T00:31:04.456Z,10.90
2017-05-19T00:33:33.077Z,12.06
2017-05-19T00:36:01.305Z,12.38
2017-05-19T00:38:30.145Z,13.62
2017-05-19T00:40:58.768Z,11.70
2017-05-19T00:43:27.390Z,12.08
2017-05-19T00:45:56.403Z,13.56
2017-05-19T00:48:25.020Z,13.56
2017-05-19T00:50:53.644Z,14.60
2017-05-19T00:53:22.436Z,15.56
2017-05-19T00:55:50.659Z,16.20
2017-05-19T00:58:19.281Z,14.90
2017-05-19T01:00:47.928Z,16.48
2017-05-19T01:03:16.546Z,16.78
2017-05-19T01:05:45.463Z,15.88
2017-05-19T01:08:14.012Z,17.10
2017-05-19T01:10:42.626Z,17.36
2017-05-19T01:13:10.852Z,17.04
2017-05-19T01:15:39.092Z,17.36
2017-05-19T01:18:07.324Z,15.96
2017-05-19T01:20:36.307Z,16.98
2017-05-19T01:23:05.040Z,16.78
2017-05-19T01:25:33.665Z,16.58
2017-05-19T01:28:02.271Z,18.20
2017-05-19T01:30:30.532Z,17.64
2017-05-19T01:32:59.756Z,18.08
2017-05-19T01:35:28.372Z,18.10
2017-05-19T01:37:57.018Z,19.34
2017-05-19T01:40:25.645Z,18.00
2017-05-19T01:42:54.257Z,19.84
2017-05-19T01:45:23.280Z,20.66
2017-05-19T01:47:51.911Z,21.72
2017-05-19T01:50:20.533Z,20.84
2017-05-19T01:52:48.767Z,21.96
2017-05-19T01:55:17.390Z,23.04
2017-05-19T01:57:45.612Z,20.74
2017-05-19T02:00:14.256Z,22.12
2017-05-19T02:02:42.876Z,21.80
2017-05-19T02:05:11.503Z,21.38
2017-05-19T02:07:40.771Z,22.12
2017-05-19T02:10:09.400Z,21.14
2017-05-19T02:12:38.020Z,22.06
2017-05-19T02:15:06.656Z,22.54
2017-05-19T02:17:35.280Z,23.50
2017-05-19T02:20:03.895Z,25.84
2017-05-19T02:22:32.548Z,26.22
2017-05-19T02:25:01.174Z,27.78
2017-05-19T02:27:30.157Z,24.60
2017-05-19T02:29:58.680Z,25.98
2017-05-19T02:32:27.303Z,22.14
2017-05-19T02:34:55.926Z,23.16
2017-05-19T02:37:24.779Z,23.08
2017-05-19T02:39:53.004Z,24.62
2017-05-19T02:42:21.623Z,21.80
2017-05-19T02:44:50.271Z,24.04
2017-05-19T02:47:18.896Z,21.92
2017-05-19T02:49:47.517Z,21.38
2017-05-19T02:52:16.343Z,22.66
2017-05-19T02:54:44.965Z,22.88
2017-05-19T02:57:13.954Z,24.60
2017-05-19T02:59:43.235Z,20.54
2017-05-19T03:02:11.862Z,21.46
2017-05-19T03:04:40.480Z,22.30
2017-05-19T03:07:09.124Z,24.22
2017-05-19T03:09:37.749Z,21.38
2017-05-19T03:12:06.364Z,23.08
2017-05-19T03:14:35.652Z,23.44
2017-05-19T03:17:03.884Z,21.80
2017-05-19T03:19:32.512Z,22.32
2017-05-19T03:22:01.671Z,22.06
2017-05-19T03:24:30.288Z,21.04
2017-05-19T03:26:58.908Z,23.38
2017-05-19T03:29:27.551Z,21.92
2017-05-19T03:31:56.169Z,22.10
2017-05-19T03:34:24.797Z,21.46
2017-05-19T03:36:53.433Z,22.20
2017-05-19T03:39:22.049Z,18.60
2017-05-19T03:41:50.664Z,21.46
2017-05-19T03:44:19.392Z,19.26
2017-05-19T03:46:48.016Z,19.38
2017-05-19T03:49:16.627Z,18.16
2017-05-19T03:51:45.635Z,17.46
2017-05-19T03:54:14.256Z,18.64
2017-05-19T03:56:43.400Z,19.02
2017-05-19T03:59:12.407Z,17.74
2017-05-19T04:01:41.022Z,18.34
2017-05-19T04:04:09.648Z,17.72
2017-05-19T04:06:37.923Z,17.94
2017-05-19T04:09:06.145Z,19.02
2017-05-19T04:11:34.369Z,17.32
2017-05-19T04:14:03.556Z,17.68
2017-05-19T04:16:32.177Z,16.96
2017-05-19T04:19:00.803Z,17.14
2017-05-19T04:21:29.451Z,17.96
2017-05-19T04:23:58.072Z,19.06
2017-05-19T04:26:26.693Z,19.00
2017-05-19T04:28:55.344Z,18.66
2017-05-19T04:31:23.969Z,19.02
2017-05-19T04:33:52.602Z,17.42
2017-05-19T04:36:21.340Z,18.78
2017-05-19T04:38:49.975Z,16.24
2017-05-19T04:41:18.591Z,17.06
2017-05-19T04:43:47.245Z,16.46
2017-05-19T04:46:15.472Z,16.88
2017-05-19T04:48:43.718Z,17.28
2017-05-19T04:51:12.330Z,18.54
2017-05-19T04:53:41.288Z,17.84
2017-05-19T04:56:10.282Z,18.58
2017-05-19T04:58:39.286Z,18.20
2017-05-19T05:01:07.908Z,18.42
2017-05-19T05:03:36.532Z,18.72
2017-05-19T05:06:05.556Z,17.20
2017-05-19T05:08:34.180Z,19.88
2017-05-19T05:11:02.405Z,19.20
2017-05-19T05:13:31.349Z,20.40
2017-05-19T05:15:59.964Z,20.04
2017-05-19T05:18:28.187Z,18.44
2017-05-19T05:20:56.863Z,20.12
2017-05-19T05:23:25.484Z,19.66
2017-05-19T05:25:54.473Z,19.46
2017-05-19T05:28:23.769Z,18.18
2017-05-19T05:30:52.398Z,18.52
2017-05-19T05:33:21.013Z,17.86
2017-05-19T05:35:49.669Z,19.40
2017-05-19T05:38:18.773Z,18.58
2017-05-19T05:40:47.670Z,19.44
2017-05-19T05:43:16.760Z,19.72
2017-05-19T05:45:45.388Z,23.90
2017-05-19T05:48:14.380Z,18.26
2017-05-19T05:50:43.411Z,20.20
2017-05-19T05:53:11.646Z,17.80
2017-05-19T05:55:39.882Z,19.70
2017-05-19T05:58:08.710Z,20.76
2017-05-19T06:00:37.694Z,19.26
2017-05-19T06:03:06.684Z,18.10
2017-05-19T06:05:35.948Z,19.76
2017-05-19T06:08:04.708Z,18.64
2017-05-19T06:10:33.681Z,18.02
2017-05-19T06:13:02.321Z,19.40
2017-05-19T06:15:30.543Z,21.64
2017-05-19T06:17:59.239Z,19.64
2017-05-19T06:20:27.870Z,22.86
2017-05-19T06:22:56.483Z,20.56
2017-05-19T06:25:25.366Z,20.70
2017-05-19T06:27:53.994Z,20.94
2017-05-19T06:30:22.219Z,16.94
2017-05-19T06:32:50.842Z,18.40
2017-05-19T06:35:19.485Z,17.78
2017-05-19T06:37:48.112Z,19.74
2017-05-19T06:40:16.732Z,19.90
2017-05-19T06:42:45.747Z,26.42
2017-05-19T06:45:13.967Z,35.70
2017-05-19T06:47:42.588Z,21.08
2017-05-19T06:50:11.792Z,20.26
2017-05-19T06:52:40.424Z,21.70
2017-05-19T06:55:09.148Z,29.16
2017-05-19T06:57:37.931Z,22.70
2017-05-19T07:00:06.153Z,24.96
2017-05-19T07:02:34.783Z,20.84
2017-05-19T07:05:04.069Z,24.08
2017-05-19T07:07:32.307Z,18.28
2017-05-19T07:10:00.925Z,21.68
2017-05-19T07:12:30.090Z,19.82
2017-05-19T07:14:58.726Z,18.32
2017-05-19T07:17:27.730Z,17.88
2017-05-19T07:19:57.096Z,18.32
2017-05-19T07:22:25.834Z,18.68
2017-05-19T07:24:54.467Z,19.74
2017-05-19T07:27:23.640Z,18.78
2017-05-19T07:29:52.249Z,18.58
2017-05-19T07:32:21.241Z,18.42
2017-05-19T07:34:49.718Z,19.28
2017-05-19T07:37:18.352Z,18.60
2017-05-19T07:39:46.986Z,16.44
2017-05-19T07:42:15.997Z,16.98
2017-05-19T07:44:44.632Z,17.94
2017-05-19T07:47:13.249Z,17.52
2017-05-19T07:49:42.433Z,17.32
2017-05-19T07:52:11.061Z,17.34
2017-05-19T07:54:39.689Z,17.32
2017-05-19T07:57:07.948Z,14.96
2017-05-19T07:59:36.578Z,16.40
2017-05-19T08:02:05.564Z,16.46
2017-05-19T08:04:34.603Z,16.26
2017-05-19T08:07:03.214Z,17.76
2017-05-19T08:09:31.835Z,19.08
2017-05-19T08:12:00.487Z,16.62
2017-05-19T08:14:29.485Z,31.58
2017-05-19T08:16:58.472Z,36.56
2017-05-19T08:19:27.658Z,36.42
2017-05-19T08:21:56.268Z,18.20
2017-05-19T08:24:24.903Z,18.04
2017-05-19T08:26:53.536Z,17.60
2017-05-19T08:29:22.157Z,18.64
2017-05-19T08:31:50.790Z,15.96
2017-05-19T08:34:19.864Z,15.36
2017-05-19T08:36:48.447Z,15.30
2017-05-19T08:39:17.061Z,14.94
2017-05-19T08:41:45.502Z,15.90
2017-05-19T08:44:14.147Z,13.26
2017-05-19T08:46:42.760Z,14.08
2017-05-19T08:49:11.421Z,13.78
2017-05-19T08:51:40.058Z,14.42
2017-05-19T08:54:09.060Z,15.56
2017-05-19T08:56:37.727Z,14.76
2017-05-19T08:59:06.726Z,15.10
2017-05-19T09:01:35.732Z,14.04
2017-05-19T09:04:04.403Z,21.40
2017-05-19T09:06:33.406Z,16.82
2017-05-19T09:09:02.038Z,14.30
2017-05-19T09:11:30.688Z,13.94
2017-05-19T09:13:59.308Z,15.60
2017-05-19T09:16:27.940Z,15.16
2017-05-19T09:18:56.599Z,15.38
2017-05-19T09:21:25.584Z,12.64
2017-05-19T09:23:54.595Z,12.68
2017-05-19T09:26:23.430Z,14.96
2017-05-19T09:28:52.044Z,13.20
2017-05-19T09:31:20.270Z,12.44
2017-05-19T09:33:48.923Z,13.20
2017-05-19T09:36:17.550Z,15.06
2017-05-19T09:38:46.172Z,14.28
2017-05-19T09:41:15.454Z,13.68
2017-05-19T09:43:44.076Z,14.10
2017-05-19T09:46:12.699Z,12.00
2017-05-19T09:48:41.379Z,13.84
2017-05-19T09:51:09.998Z,11.30
2017-05-19T09:53:39.004Z,11.44
2017-05-19T09:56:07.262Z,13.26
2017-05-19T09:58:36.257Z,12.36
2017-05-19T10:01:05.246Z,12.40
2017-05-19T10:03:34.101Z,11.32
2017-05-19T10:06:02.724Z,10.90
2017-05-19T10:08:31.722Z,10.54
2017-05-19T10:11:00.369Z,10.28
2017-05-19T10:13:28.992Z,15.30
2017-05-19T10:15:57.625Z,14.14
2017-05-19T10:18:26.284Z,13.58
2017-05-19T10:20:54.512Z,14.62
2017-05-19T10:23:23.508Z,13.58
2017-05-19T10:25:52.529Z,15.66
2017-05-19T10:28:21.418Z,15.68
2017-05-19T10:30:50.040Z,16.08
2017-05-19T10:33:18.715Z,16.86
2017-05-19T10:35:47.331Z,17.08
2017-05-19T10:38:15.962Z,17.16
2017-05-19T10:40:44.490Z,17.96
2017-05-19T10:45:49.045Z,17.62
2017-05-19T10:48:18.035Z,18.90
2017-05-19T10:50:47.024Z,20.50
2017-05-19T10:53:16.765Z,18.32
2017-05-19T10:55:45.388Z,28.64
2017-05-19T10:58:14.353Z,26.74
2017-05-19T11:00:43.172Z,23.62
2017-05-19T11:03:11.799Z,18.90
2017-05-19T11:05:41.048Z,19.62
2017-05-19T11:08:09.730Z,19.58
2017-05-19T11:10:38.350Z,20.04
2017-05-19T11:13:06.976Z,20.22
2017-05-19T11:15:35.887Z,20.84
2017-05-19T11:18:04.500Z,23.04
2017-05-19T11:20:33.132Z,21.78
2017-05-19T11:23:01.947Z,21.92
2017-05-19T11:25:30.940Z,36.98
2017-05-19T11:27:59.170Z,23.88
2017-05-19T11:30:27.833Z,24.40
2017-05-19T11:32:56.069Z,24.38
2017-05-19T11:35:24.683Z,21.44
2017-05-19T11:37:52.949Z,24.46
2017-05-19T11:40:21.167Z,23.62
2017-05-19T11:42:49.790Z,23.24
2017-05-19T11:45:19.064Z,22.56
2017-05-19T11:47:47.684Z,23.54
2017-05-19T11:50:18.092Z,30.60
2017-05-19T11:52:47.124Z,30.74
2017-05-19T11:55:15.354Z,21.94
2017-05-19T11:57:44.354Z,22.22
2017-05-19T12:00:12.610Z,22.86
2017-05-19T12:02:41.237Z,23.68
2017-05-19T12:05:10.152Z,22.36
2017-05-19T12:07:38.788Z,24.96
2017-05-19T12:10:07.417Z,32.54
2017-05-19T12:12:36.044Z,38.36
2017-05-19T12:15:05.071Z,29.02
2017-05-19T12:17:33.673Z,27.28
2017-05-19T12:20:02.301Z,23.42
2017-05-19T12:22:31.279Z,22.16
2017-05-19T12:24:59.904Z,20.80
2017-05-19T12:27:28.529Z,19.70
2017-05-19T12:29:57.331Z,20.04
2017-05-19T12:32:25.963Z,19.40
2017-05-19T12:34:54.580Z,18.40
2017-05-19T12:37:23.240Z,23.28
2017-05-19T12:39:51.871Z,23.60
2017-05-19T12:42:20.874Z,22.12
2017-05-19T12:44:49.911Z,26.94
2017-05-19T12:47:18.544Z,25.02
2017-05-19T12:49:47.532Z,21.82
2017-05-19T12:52:17.129Z,23.38
2017-05-19T12:54:45.731Z,22.52
2017-05-19T12:57:13.967Z,22.70
2017-05-19T12:59:43.173Z,24.78
2017-05-19T13:02:11.395Z,24.70
2017-05-19T13:04:40.027Z,25.72
2017-05-19T13:07:08.672Z,28.60
2017-05-19T13:09:37.363Z,28.08
2017-05-19T13:12:05.556Z,27.06
2017-05-19T13:14:34.227Z,29.60
2017-05-19T13:17:02.840Z,25.42
2017-05-19T13:19:31.064Z,24.20
2017-05-19T13:21:59.711Z,22.62
2017-05-19T13:24:28.711Z,23.50
2017-05-19T13:26:57.340Z,23.94
2017-05-19T13:29:26.012Z,23.82
2017-05-19T13:31:54.628Z,23.22
2017-05-19T13:34:22.871Z,23.30
2017-05-19T13:36:51.790Z,20.64
2017-05-19T13:39:20.859Z,22.50
2017-05-19T13:41:49.484Z,23.30
2017-05-19T13:44:18.526Z,23.30
2017-05-19T13:46:47.126Z,23.64
2017-05-19T13:49:15.752Z,24.02
2017-05-19T13:51:45.974Z,27.14
2017-05-19T13:54:14.598Z,43.52
2017-05-19T13:56:43.453Z,33.68
2017-05-19T13:59:12.096Z,28.32
2017-05-19T14:01:40.336Z,25.32
2017-05-19T14:04:08.556Z,24.12
2017-05-19T14:06:36.811Z,25.02
2017-05-19T14:09:05.429Z,26.86
2017-05-19T14:11:34.283Z,28.58
2017-05-19T14:14:03.149Z,26.52
2017-05-19T14:16:31.351Z,32.16
2017-05-19T14:18:59.983Z,33.30
2017-05-19T14:21:29.124Z,33.76
2017-05-19T14:23:57.751Z,32.32
2017-05-19T14:26:26.387Z,31.12
2017-05-19T14:28:54.639Z,29.64
2017-05-19T14:31:23.273Z,34.84
2017-05-19T14:33:51.900Z,33.10
2017-05-19T14:36:21.019Z,31.20
2017-05-19T14:38:49.645Z,36.80
2017-05-19T14:41:18.286Z,33.56
2017-05-19T14:43:46.933Z,31.70
2017-05-19T14:46:15.565Z,32.58
2017-05-19T14:48:44.552Z,34.44
2017-05-19T14:51:13.862Z,34.24
2017-05-19T14:53:42.090Z,50.58
2017-05-19T14:56:11.370Z,40.92
2017-05-19T14:58:40.529Z,35.84
2017-05-19T15:01:09.958Z,32.16
2017-05-19T15:03:38.592Z,34.82
2017-05-19T15:06:06.853Z,43.84
2017-05-19T15:08:35.938Z,35.42
2017-05-19T15:11:04.830Z,35.04
2017-05-19T15:13:34.034Z,35.52
2017-05-19T15:16:02.646Z,35.98
2017-05-19T15:18:31.668Z,37.32
2017-05-19T15:20:59.926Z,34.62
2017-05-19T15:23:28.918Z,33.52
2017-05-19T15:25:58.047Z,33.22
2017-05-19T15:28:26.283Z,32.48
2017-05-19T15:30:54.899Z,34.46
2017-05-19T15:33:23.592Z,31.84
2017-05-19T15:35:52.351Z,91.36
2017-05-19T15:38:20.972Z,53.46
2017-05-19T15:40:49.965Z,33.46
2017-05-19T15:43:18.883Z,32.66
2017-05-19T15:45:47.123Z,30.76
2017-05-19T15:48:15.745Z,29.34
2017-05-19T15:50:44.759Z,27.36
2017-05-19T15:53:13.402Z,28.82
2017-05-19T15:55:41.648Z,29.98
2017-05-19T15:58:10.296Z,29.10
2017-05-19T16:00:38.934Z,26.88
2017-05-19T16:03:07.557Z,24.88
2017-05-19T16:05:36.206Z,24.46
2017-05-19T16:08:05.064Z,23.90
2017-05-19T16:10:33.691Z,22.52
2017-05-19T16:13:02.988Z,23.54
2017-05-19T16:15:31.222Z,24.38
2017-05-19T16:17:59.846Z,22.28
2017-05-19T16:20:28.852Z,21.22
2017-05-19T16:22:57.492Z,22.62
2017-05-19T16:25:26.116Z,23.22
2017-05-19T16:27:55.617Z,22.98
2017-05-19T16:30:24.210Z,24.16
2017-05-19T16:32:52.833Z,23.56
2017-05-19T16:35:21.822Z,27.20
2017-05-19T16:37:50.709Z,83.14
2017-05-19T16:40:19.438Z,39.18
2017-05-19T16:42:47.672Z,33.28
2017-05-19T16:45:16.293Z,33.60
2017-05-19T16:47:45.581Z,33.28
2017-05-19T16:50:14.845Z,34.38
2017-05-19T16:52:43.093Z,32.96
2017-05-19T16:55:11.448Z,32.64
2017-05-19T16:57:40.287Z,32.18
2017-05-19T17:00:08.921Z,34.50
2017-05-19T17:02:38.392Z,30.90
2017-05-19T17:05:06.986Z,32.58
2017-05-19T17:07:35.985Z,30.80
2017-05-19T17:10:05.208Z,30.10
2017-05-19T17:12:33.845Z,31.94
2017-05-19T17:15:02.490Z,35.24
2017-05-19T17:17:31.147Z,44.78
2017-05-19T17:19:59.791Z,59.26
2017-05-19T17:22:28.717Z,40.00
2017-05-19T17:24:58.296Z,31.82
2017-05-19T17:27:27.019Z,32.16
2017-05-19T17:29:55.735Z,32.40
2017-05-19T17:32:24.860Z,29.32
2017-05-19T17:34:53.142Z,32.04
2017-05-19T17:37:21.436Z,31.80
2017-05-19T17:39:50.561Z,32.50
2017-05-19T17:42:19.043Z,33.02
2017-05-19T17:44:47.672Z,31.18
2017-05-19T17:47:16.591Z,29.16
2017-05-19T17:49:44.860Z,28.50
2017-05-19T17:52:13.542Z,27.68
2017-05-19T17:54:42.420Z,26.64
2017-05-19T17:57:10.882Z,26.66
2017-05-19T17:59:40.772Z,24.42
2017-05-19T18:02:10.211Z,23.02
2017-05-19T18:04:38.495Z,21.02
2017-05-19T18:07:07.555Z,21.42
2017-05-19T18:09:35.872Z,21.50
2017-05-19T18:12:04.614Z,20.72
2017-05-19T18:14:33.446Z,22.08
2017-05-19T18:17:02.191Z,41.48
2017-05-19T18:19:30.767Z,20.50
2017-05-19T18:21:59.821Z,18.80
2017-05-19T18:24:28.538Z,19.18
2017-05-19T18:26:57.414Z,18.54
2017-05-19T18:29:26.019Z,18.38
2017-05-19T18:31:55.177Z,19.36
2017-05-19T18:34:25.281Z,18.34
2017-05-19T18:36:54.560Z,17.28
2017-05-19T18:39:23.567Z,17.58
2017-05-19T18:41:52.552Z,15.48
2017-05-19T18:44:21.888Z,16.90
2017-05-19T18:46:50.930Z,16.36
2017-05-19T18:49:19.604Z,16.14
2017-05-19T18:51:50.029Z,15.68
2017-05-19T18:54:19.063Z,43.04
2017-05-19T18:56:47.815Z,29.18
2017-05-19T18:59:17.047Z,16.54
2017-05-19T19:01:48.658Z,17.28
2017-05-19T19:04:18.750Z,17.45
2017-05-19T19:06:48.019Z,17.86
2017-05-19T19:09:17.036Z,17.38
2017-05-19T19:11:46.819Z,16.70
2017-05-19T19:14:17.277Z,18.64
2017-05-19T19:16:46.411Z,17.44
2017-05-19T19:19:15.615Z,19.10
2017-05-19T19:21:44.710Z,20.04
2017-05-19T19:24:16.355Z,26.52
2017-05-19T19:26:45.218Z,33.84
2017-05-19T19:29:14.979Z,24.72
2017-05-19T19:31:44.006Z,24.26
2017-05-19T19:34:13.785Z,26.64
2017-05-19T19:36:43.031Z,23.54
2017-05-19T19:39:13.659Z,20.40
2017-05-19T19:41:43.839Z,26.40
2017-05-19T19:44:13.447Z,31.12
2017-05-19T19:46:42.529Z,24.36
2017-05-19T19:49:12.055Z,26.42
2017-05-19T19:51:41.103Z,27.66
2017-05-19T19:54:12.231Z,30.78
2017-05-19T19:56:41.438Z,29.64
2017-05-19T19:59:10.563Z,25.84
2017-05-19T20:01:39.671Z,24.24
2017-05-19T20:04:09.490Z,27.08
2017-05-19T20:06:38.197Z,52.02
2017-05-19T20:09:08.178Z,26.76
2017-05-19T20:11:37.442Z,26.02
2017-05-19T20:14:07.191Z,26.86
2017-05-19T20:16:36.276Z,25.90
2017-05-19T20:19:05.751Z,27.08
2017-05-19T20:21:35.128Z,22.60
2017-05-19T20:24:05.084Z,23.02
2017-05-19T20:26:34.165Z,42.20
2017-05-19T20:29:03.297Z,23.50
2017-05-19T20:31:34.934Z,26.86
2017-05-19T20:34:04.048Z,25.50
2017-05-19T20:36:33.165Z,27.74
2017-05-19T20:39:02.289Z,26.00
2017-05-19T20:41:30.895Z,22.74
2017-05-19T20:43:59.919Z,21.44
2017-05-19T20:46:29.366Z,21.78
2017-05-19T20:48:58.782Z,23.08
2017-05-19T20:51:29.227Z,24.30
2017-05-19T20:53:58.463Z,22.22
2017-05-19T20:56:27.139Z,22.08
2017-05-19T20:58:56.304Z,23.36
2017-05-19T21:01:25.352Z,20.74
2017-05-19T21:03:54.869Z,21.76
2017-05-19T21:06:23.665Z,22.30
2017-05-19T21:08:53.088Z,23.08
2017-05-19T21:11:21.844Z,22.72
2017-05-19T21:13:50.269Z,21.08
2017-05-19T21:16:19.918Z,21.74
2017-05-19T21:18:48.673Z,22.36
2017-05-19T21:21:17.080Z,22.76
2017-05-19T21:23:45.421Z,23.38
2017-05-19T21:26:14.265Z,21.62
2017-05-19T21:28:42.888Z,27.50
2017-05-19T21:31:11.936Z,21.12
2017-05-19T21:33:40.554Z,20.14
2017-05-19T21:36:09.553Z,20.94
2017-05-19T21:38:37.796Z,19.58
2017-05-19T21:41:06.024Z,18.98
2017-05-19T21:43:34.641Z,20.22
2017-05-19T21:46:03.407Z,21.42
2017-05-19T21:48:32.042Z,19.44
2017-05-19T21:51:00.956Z,18.98
2017-05-19T21:53:29.630Z,20.20
2017-05-19T21:55:58.257Z,19.92
2017-05-19T21:58:26.891Z,19.48
2017-05-19T22:00:55.935Z,18.22
2017-05-19T22:03:24.577Z,35.60
2017-05-19T22:05:53.192Z,18.62
2017-05-19T22:08:22.224Z,19.38
2017-05-19T22:21:55.972Z,17.32
2017-05-19T22:24:23.824Z,17.96
2017-05-19T22:26:51.686Z,16.60
2017-05-19T22:29:19.643Z,15.68
2017-05-19T22:31:48.484Z,15.28
2017-05-19T22:34:15.935Z,16.26
2017-05-19T22:36:44.084Z,14.98
2017-05-19T22:39:11.973Z,13.94
2017-05-19T22:41:39.819Z,15.20
2017-05-19T22:44:07.697Z,14.74
2017-05-19T22:46:35.555Z,14.24
2017-05-19T22:49:03.404Z,12.86
2017-05-19T22:51:30.987Z,13.40
2017-05-19T22:53:58.459Z,12.92
2017-05-19T22:56:26.309Z,11.12
2017-05-19T22:58:54.148Z,12.24
2017-05-19T23:01:22.000Z,12.58
2017-05-19T23:03:50.167Z,11.30
2017-05-19T23:06:18.036Z,12.40
2017-05-19T23:08:45.886Z,12.52
2017-05-19T23:11:13.736Z,15.84
2017-05-19T23:13:41.953Z,14.88
2017-05-19T23:16:09.819Z,12.72
2017-05-19T23:18:37.661Z,14.08
2017-05-19T23:21:05.549Z,14.16
2017-05-19T23:23:33.008Z,13.58
2017-05-19T23:26:00.871Z,13.84
2017-05-19T23:28:28.914Z,13.50
2017-05-19T23:30:56.783Z,12.34
2017-05-19T23:33:24.640Z,13.36
2017-05-19T23:35:52.529Z,13.14
2017-05-19T23:38:20.383Z,12.62
2017-05-19T23:40:48.251Z,13.86
2017-05-19T23:43:16.135Z,13.80
2017-05-19T23:45:43.980Z,13.30
2017-05-19T23:48:11.435Z,11.68
2017-05-19T23:50:39.007Z,12.74
2017-05-19T23:53:06.859Z,13.42
2017-05-19T23:55:34.709Z,12.54
2017-05-19T23:58:02.198Z,13.14
